createdAt,value
2017-12-19T00:02:04.538Z,11.90
2017-12-19T00:04:32.683Z,10.87
2017-12-19T00:07:00.861Z,10.43
2017-12-19T00:09:29.766Z,9.93
2017-12-19T00:11:57.973Z,9.33
2017-12-19T00:14:26.123Z,9.20
2017-12-19T00:16:54.286Z,9.67
2017-12-19T00:19:23.187Z,10.47
2017-12-19T00:21:51.344Z,10.27
2017-12-19T00:24:20.347Z,11.47
2017-12-19T00:26:49.297Z,10.73
2017-12-19T00:29:17.444Z,9.93
2017-12-19T00:31:45.562Z,9.00
2017-12-19T00:34:13.721Z,9.80
2017-12-19T00:36:41.862Z,9.77
2017-12-19T00:39:10.025Z,11.17
2017-12-19T00:41:38.171Z,9.90
2017-12-19T00:44:07.078Z,10.93
2017-12-19T00:46:35.210Z,11.37
2017-12-19T00:49:03.625Z,10.90
2017-12-19T00:51:31.823Z,11.00
2017-12-19T00:53:59.990Z,10.50
2017-12-19T00:56:28.144Z,10.30
2017-12-19T00:58:57.063Z,11.43
2017-12-19T01:01:25.186Z,11.80
2017-12-19T01:03:53.334Z,10.77
2017-12-19T01:06:21.494Z,11.40
2017-12-19T01:08:49.694Z,11.37
2017-12-19T01:11:17.966Z,12.13
2017-12-19T01:13:46.113Z,10.90
2017-12-19T01:16:14.247Z,11.40
2017-12-19T01:18:43.190Z,11.40
2017-12-19T01:21:11.318Z,11.50
2017-12-19T01:23:40.238Z,13.07
2017-12-19T01:26:08.387Z,11.60
2017-12-19T01:28:37.306Z,10.87
2017-12-19T01:31:05.441Z,11.87
2017-12-19T01:33:34.398Z,10.73
2017-12-19T01:36:02.991Z,11.37
2017-12-19T01:38:31.110Z,12.80
2017-12-19T01:40:59.263Z,12.50
2017-12-19T01:43:28.158Z,12.90
2017-12-19T01:45:57.081Z,13.23
2017-12-19T01:48:25.206Z,13.13
2017-12-19T01:50:53.369Z,13.30
2017-12-19T01:53:21.490Z,12.50
2017-12-19T01:55:49.660Z,13.17
2017-12-19T01:58:17.790Z,14.50
2017-12-19T02:00:45.974Z,13.27
2017-12-19T02:03:14.105Z,12.73
2017-12-19T02:05:42.291Z,13.27
2017-12-19T02:08:10.426Z,13.50
2017-12-19T02:10:38.620Z,12.70
2017-12-19T02:13:06.760Z,12.97
2017-12-19T02:15:35.703Z,13.03
2017-12-19T02:18:03.855Z,13.10
2017-12-19T02:20:32.041Z,13.93
2017-12-19T02:23:00.152Z,14.30
2017-12-19T02:25:28.327Z,13.70
2017-12-19T02:27:56.458Z,14.00
2017-12-19T02:30:24.668Z,13.83
2017-12-19T02:32:53.609Z,15.90
2017-12-19T02:35:21.793Z,13.07
2017-12-19T02:37:49.960Z,14.20
2017-12-19T02:40:18.089Z,13.13
2017-12-19T02:42:58.778Z,14.10
2017-12-19T02:45:27.713Z,13.60
2017-12-19T02:47:55.835Z,13.10
2017-12-19T02:50:24.743Z,13.53
2017-12-19T02:52:52.918Z,13.73
2017-12-19T02:55:21.053Z,13.40
2017-12-19T02:57:49.206Z,13.70
2017-12-19T03:00:17.336Z,13.90
2017-12-19T03:02:45.505Z,14.10
2017-12-19T03:05:14.395Z,13.60
2017-12-19T03:07:43.324Z,12.13
2017-12-19T03:10:11.453Z,13.43
2017-12-19T03:12:39.676Z,13.50
2017-12-19T03:15:07.818Z,12.77
2017-12-19T03:17:35.979Z,13.23
2017-12-19T03:20:04.439Z,13.30
2017-12-19T03:22:33.399Z,12.97
2017-12-19T03:25:01.545Z,13.57
2017-12-19T03:27:29.710Z,14.10
2017-12-19T03:29:57.846Z,13.80
2017-12-19T03:32:25.998Z,13.00
2017-12-19T03:34:54.146Z,15.03
2017-12-19T03:37:22.322Z,14.13
2017-12-19T03:39:50.457Z,14.77
2017-12-19T03:42:19.369Z,15.87
2017-12-19T03:44:47.515Z,16.10
2017-12-19T03:47:16.458Z,17.27
2017-12-19T03:49:44.600Z,15.40
2017-12-19T03:52:13.552Z,16.73
2017-12-19T03:54:41.680Z,17.80
2017-12-19T03:57:09.849Z,16.03
2017-12-19T03:59:37.989Z,18.33
2017-12-19T04:02:06.190Z,16.27
2017-12-19T04:04:35.122Z,17.67
2017-12-19T04:07:03.262Z,17.53
2017-12-19T04:09:31.416Z,17.70
2017-12-19T04:12:00.319Z,18.90
2017-12-19T04:14:29.238Z,16.80
2017-12-19T04:16:57.396Z,17.00
2017-12-19T04:19:25.559Z,19.07
2017-12-19T04:21:53.694Z,16.47
2017-12-19T04:24:21.850Z,16.70
2017-12-19T04:26:49.991Z,18.00
2017-12-19T04:29:18.162Z,18.83
2017-12-19T04:31:46.275Z,18.50
2017-12-19T04:34:14.461Z,18.83
2017-12-19T04:36:42.602Z,18.27
2017-12-19T04:39:10.930Z,18.50
2017-12-19T04:41:39.083Z,19.03
2017-12-19T04:44:07.227Z,19.57
2017-12-19T04:46:35.345Z,18.57
2017-12-19T04:49:03.833Z,17.43
2017-12-19T04:51:32.194Z,18.17
2017-12-19T04:54:00.362Z,18.90
2017-12-19T04:56:28.486Z,18.13
2017-12-19T04:58:56.653Z,18.30
2017-12-19T05:01:25.659Z,19.33
2017-12-19T05:03:53.997Z,15.90
2017-12-19T05:06:22.150Z,18.30
2017-12-19T05:08:50.376Z,17.70
2017-12-19T05:11:18.533Z,18.90
2017-12-19T05:13:47.471Z,18.17
2017-12-19T05:16:15.626Z,17.33
2017-12-19T05:18:43.775Z,19.20
2017-12-19T05:21:12.677Z,19.33
2017-12-19T05:23:41.618Z,20.40
2017-12-19T05:26:09.742Z,17.50
2017-12-19T05:28:38.668Z,18.33
2017-12-19T05:31:06.853Z,19.60
2017-12-19T05:33:34.976Z,18.60
2017-12-19T05:36:03.909Z,18.73
2017-12-19T05:38:32.028Z,19.37
2017-12-19T05:41:00.177Z,19.10
2017-12-19T05:43:28.345Z,20.13
2017-12-19T05:45:57.687Z,19.03
2017-12-19T05:48:26.702Z,18.90
2017-12-19T05:50:54.869Z,19.00
2017-12-19T05:53:23.010Z,18.10
2017-12-19T05:55:51.968Z,18.60
2017-12-19T05:58:20.112Z,18.10
2017-12-19T06:00:48.266Z,20.03
2017-12-19T06:03:17.472Z,20.20
2017-12-19T06:05:45.641Z,18.80
2017-12-19T06:08:14.549Z,18.00
2017-12-19T06:10:43.918Z,19.80
2017-12-19T06:13:12.046Z,20.30
2017-12-19T06:15:40.214Z,19.63
2017-12-19T06:18:08.332Z,23.33
2017-12-19T06:20:36.486Z,22.60
2017-12-19T06:23:04.715Z,19.67
2017-12-19T06:25:32.878Z,20.30
2017-12-19T06:28:01.787Z,20.50
2017-12-19T06:30:31.138Z,20.30
2017-12-19T06:32:59.291Z,21.27
2017-12-19T06:35:27.465Z,20.80
2017-12-19T06:37:55.605Z,19.23
2017-12-19T06:40:23.758Z,20.73
2017-12-19T06:42:52.656Z,18.57
2017-12-19T06:45:21.607Z,21.37
2017-12-19T06:47:49.742Z,19.93
2017-12-19T06:50:17.898Z,20.10
2017-12-19T06:52:46.787Z,21.13
2017-12-19T06:55:14.954Z,21.10
2017-12-19T06:57:43.868Z,21.97
2017-12-19T07:00:12.160Z,21.70
2017-12-19T07:02:40.288Z,22.83
2017-12-19T07:05:09.182Z,23.13
2017-12-19T07:07:39.202Z,22.17
2017-12-19T07:10:08.099Z,22.10
2017-12-19T07:12:36.397Z,20.23
2017-12-19T07:15:04.734Z,20.90
2017-12-19T07:17:32.966Z,25.03
2017-12-19T07:20:02.125Z,27.10
2017-12-19T07:22:31.295Z,29.37
2017-12-19T07:24:59.460Z,29.60
2017-12-19T07:27:27.615Z,25.57
2017-12-19T07:29:55.762Z,24.40
2017-12-19T07:32:23.923Z,22.97
2017-12-19T07:34:52.824Z,22.77
2017-12-19T07:37:21.032Z,23.77
2017-12-19T07:39:49.202Z,22.80
2017-12-19T07:42:17.383Z,21.60
2017-12-19T07:44:46.334Z,21.83
2017-12-19T07:47:15.616Z,23.57
2017-12-19T07:49:43.743Z,22.60
2017-12-19T07:52:11.928Z,24.20
2017-12-19T07:54:40.094Z,23.70
2017-12-19T07:57:08.313Z,24.80
2017-12-19T07:59:36.474Z,23.37
2017-12-19T08:02:04.664Z,25.43
2017-12-19T08:04:32.833Z,25.67
2017-12-19T08:07:01.000Z,25.80
2017-12-19T08:09:29.131Z,25.70
2017-12-19T08:11:57.294Z,24.77
2017-12-19T08:14:25.491Z,26.37
2017-12-19T08:16:53.675Z,24.03
2017-12-19T08:19:21.839Z,24.47
2017-12-19T08:21:50.044Z,24.60
2017-12-19T08:24:18.197Z,27.00
2017-12-19T08:26:46.330Z,24.50
2017-12-19T08:29:15.256Z,24.00
2017-12-19T08:31:43.407Z,24.70
2017-12-19T08:34:11.578Z,22.30
2017-12-19T08:36:39.716Z,21.67
2017-12-19T08:39:07.926Z,21.60
2017-12-19T08:41:36.094Z,22.47
2017-12-19T08:44:04.534Z,19.37
2017-12-19T08:46:32.684Z,20.00
2017-12-19T08:49:00.833Z,19.47
2017-12-19T08:51:28.983Z,21.00
2017-12-19T08:53:57.953Z,19.90
2017-12-19T08:56:26.215Z,19.33
2017-12-19T08:58:54.361Z,21.80
2017-12-19T09:01:22.516Z,19.07
2017-12-19T09:03:50.679Z,21.67
2017-12-19T09:06:19.582Z,18.80
2017-12-19T09:08:47.747Z,18.57
2017-12-19T09:11:16.651Z,19.17
2017-12-19T09:13:44.856Z,19.03
2017-12-19T09:16:12.998Z,19.40
2017-12-19T09:18:41.184Z,16.77
2017-12-19T09:21:09.338Z,19.37
2017-12-19T09:23:37.547Z,16.80
2017-12-19T09:26:05.689Z,16.50
2017-12-19T09:28:33.850Z,16.90
2017-12-19T09:31:03.247Z,15.03
2017-12-19T09:33:31.402Z,14.93
2017-12-19T09:35:59.546Z,13.27
2017-12-19T09:38:27.712Z,15.07
2017-12-19T09:40:55.854Z,14.50
2017-12-19T09:43:24.765Z,13.23
2017-12-19T09:45:52.898Z,12.13
2017-12-19T09:48:21.082Z,13.43
2017-12-19T09:50:49.198Z,13.83
2017-12-19T09:53:17.359Z,13.60
2017-12-19T09:55:45.514Z,11.70
2017-12-19T09:58:13.700Z,11.40
2017-12-19T10:00:41.853Z,11.70
2017-12-19T10:03:10.768Z,12.57
2017-12-19T10:05:38.918Z,18.00
2017-12-19T10:08:07.810Z,16.13
2017-12-19T10:10:36.730Z,16.27
2017-12-19T10:13:04.858Z,18.63
2017-12-19T10:15:33.030Z,21.33
2017-12-19T10:18:01.154Z,21.70
2017-12-19T10:20:29.404Z,20.27
2017-12-19T10:22:57.546Z,19.07
2017-12-19T10:25:25.718Z,18.87
2017-12-19T10:27:53.845Z,20.40
2017-12-19T10:30:21.997Z,17.57
2017-12-19T10:32:50.892Z,17.73
2017-12-19T10:35:19.817Z,15.63
2017-12-19T10:37:48.015Z,10.97
2017-12-19T10:40:16.186Z,8.87
2017-12-19T10:42:44.314Z,10.00
2017-12-19T10:45:12.485Z,8.03
2017-12-19T10:47:41.361Z,8.87
2017-12-19T10:50:10.275Z,9.37
2017-12-19T10:52:38.406Z,10.97
2017-12-19T10:55:06.710Z,8.63
2017-12-19T10:57:35.597Z,7.37
2017-12-19T11:00:04.538Z,8.17
2017-12-19T11:02:37.570Z,8.47
2017-12-19T11:05:05.754Z,7.80
2017-12-19T11:07:34.645Z,8.70
2017-12-19T11:10:03.839Z,8.90
2017-12-19T11:12:32.759Z,8.53
2017-12-19T11:15:00.949Z,8.37
2017-12-19T11:17:29.109Z,7.37
2017-12-19T11:19:57.262Z,7.97
2017-12-19T11:22:25.386Z,8.00
2017-12-19T11:24:53.532Z,6.37
2017-12-19T11:27:21.662Z,5.60
2017-12-19T11:29:49.862Z,6.70
2017-12-19T11:32:18.135Z,5.70
2017-12-19T11:34:47.044Z,5.90
2017-12-19T11:37:15.180Z,5.03
2017-12-19T11:39:44.094Z,5.40
2017-12-19T11:42:12.214Z,6.03
2017-12-19T11:44:40.399Z,5.30
2017-12-19T11:47:08.532Z,4.93
2017-12-19T11:49:36.706Z,5.50
2017-12-19T11:52:04.856Z,5.20
2017-12-19T11:54:33.738Z,5.77
2017-12-19T11:57:02.658Z,6.60
2017-12-19T11:59:30.789Z,6.37
2017-12-19T12:01:59.733Z,5.20
2017-12-19T12:04:27.884Z,5.80
2017-12-19T12:06:56.048Z,5.10
2017-12-19T12:09:24.934Z,3.90
2017-12-19T12:11:53.838Z,4.30
2017-12-19T12:14:21.957Z,3.63
2017-12-19T12:16:50.104Z,3.17
2017-12-19T12:19:18.226Z,2.70
2017-12-19T12:21:46.370Z,2.37
2017-12-19T12:24:14.635Z,2.37
2017-12-19T12:26:42.782Z,2.30
2017-12-19T12:29:10.932Z,2.50
2017-12-19T12:31:39.861Z,2.50
2017-12-19T12:34:07.991Z,2.80
2017-12-19T12:36:37.206Z,2.70
2017-12-19T12:39:06.154Z,3.00
2017-12-19T12:41:34.430Z,3.13
2017-12-19T12:44:02.714Z,2.77
2017-12-19T12:46:30.860Z,4.20
2017-12-19T12:48:59.053Z,2.50
2017-12-19T12:51:27.204Z,2.63
2017-12-19T12:53:55.318Z,2.80
2017-12-19T12:56:23.512Z,3.37
2017-12-19T12:58:51.841Z,3.13
2017-12-19T13:01:19.997Z,2.97
2017-12-19T13:03:48.151Z,3.17
2017-12-19T13:06:17.082Z,3.47
2017-12-19T13:08:45.235Z,3.17
2017-12-19T13:11:13.366Z,2.40
2017-12-19T13:13:41.575Z,3.30
2017-12-19T13:16:09.800Z,3.23
2017-12-19T13:18:37.961Z,2.70
2017-12-19T13:21:06.101Z,3.20
2017-12-19T13:23:34.258Z,3.40
2017-12-19T13:26:02.660Z,3.47
2017-12-19T13:28:30.806Z,3.90
2017-12-19T13:30:59.702Z,2.80
2017-12-19T13:33:28.607Z,2.93
2017-12-19T13:35:56.830Z,2.87
2017-12-19T13:38:24.974Z,3.10
2017-12-19T13:40:53.098Z,3.13
2017-12-19T13:43:22.318Z,3.63
2017-12-19T13:45:50.470Z,2.83
2017-12-19T13:48:19.383Z,3.47
2017-12-19T13:50:47.504Z,2.77
2017-12-19T13:53:15.646Z,3.40
2017-12-19T13:55:43.995Z,4.03
2017-12-19T13:58:12.174Z,3.10
2017-12-19T14:00:40.312Z,3.67
2017-12-19T14:03:08.451Z,3.73
2017-12-19T14:05:36.577Z,3.23
2017-12-19T14:08:05.540Z,3.70
2017-12-19T14:10:33.672Z,3.90
2017-12-19T14:13:01.826Z,3.07
2017-12-19T14:15:30.718Z,3.10
2017-12-19T14:17:59.625Z,4.03
2017-12-19T14:20:27.742Z,3.20
2017-12-19T14:22:55.894Z,3.20
2017-12-19T14:25:24.026Z,3.57
2017-12-19T14:27:53.006Z,3.80
2017-12-19T14:30:21.149Z,3.90
2017-12-19T14:32:49.272Z,3.70
2017-12-19T14:35:18.177Z,4.33
2017-12-19T14:37:46.298Z,3.90
2017-12-19T14:40:14.429Z,3.70
2017-12-19T14:42:42.560Z,3.50
2017-12-19T14:45:10.718Z,4.13
2017-12-19T14:47:38.843Z,3.87
2017-12-19T14:50:06.991Z,3.50
2017-12-19T14:52:35.874Z,3.60
2017-12-19T14:55:04.014Z,3.83
2017-12-19T14:57:32.117Z,4.10
2017-12-19T15:00:00.259Z,3.70
2017-12-19T15:02:28.374Z,3.47
2017-12-19T15:04:57.984Z,4.13
2017-12-19T15:07:27.009Z,4.07
2017-12-19T15:09:56.029Z,5.63
2017-12-19T15:12:24.164Z,4.00
2017-12-19T15:14:52.313Z,3.83
2017-12-19T15:17:21.226Z,3.80
2017-12-19T15:19:49.376Z,7.80
2017-12-19T15:22:17.530Z,5.13
2017-12-19T15:24:45.675Z,3.60
2017-12-19T15:27:13.823Z,3.47
2017-12-19T15:29:41.979Z,4.60
2017-12-19T15:32:10.874Z,4.43
2017-12-19T15:34:39.807Z,4.20
2017-12-19T15:37:07.953Z,3.37
2017-12-19T15:39:36.274Z,3.27
2017-12-19T15:42:04.815Z,3.60
2017-12-19T15:44:33.111Z,3.70
2017-12-19T15:47:01.711Z,4.17
2017-12-19T15:49:30.783Z,3.80
2017-12-19T15:51:59.168Z,4.07
2017-12-19T15:54:27.438Z,4.10
2017-12-19T15:56:55.567Z,4.40
2017-12-19T15:59:24.033Z,4.57
2017-12-19T16:01:53.313Z,12.30
2017-12-19T16:04:21.552Z,5.30
2017-12-19T16:06:49.860Z,4.30
2017-12-19T16:09:18.009Z,4.10
2017-12-19T16:11:46.128Z,5.50
2017-12-19T16:14:14.251Z,5.03
2017-12-19T16:16:42.409Z,6.30
2017-12-19T16:19:11.463Z,5.67
2017-12-19T16:21:39.618Z,3.80
2017-12-19T16:24:07.848Z,3.83
2017-12-19T16:26:36.828Z,4.10
2017-12-19T16:29:05.734Z,5.23
2017-12-19T16:31:33.966Z,6.50
2017-12-19T16:34:03.650Z,7.43
2017-12-19T16:36:32.478Z,5.67
2017-12-19T16:39:01.429Z,6.10
2017-12-19T16:41:29.960Z,5.30
2017-12-19T16:43:58.098Z,5.17
2017-12-19T16:46:27.599Z,4.50
2017-12-19T16:48:55.718Z,6.43
2017-12-19T16:51:23.871Z,7.00
2017-12-19T16:53:52.009Z,9.90
2017-12-19T16:56:20.213Z,7.93
2017-12-19T16:58:49.163Z,7.00
2017-12-19T17:01:17.310Z,6.27
2017-12-19T17:03:45.616Z,6.90
2017-12-19T17:06:13.811Z,6.80
2017-12-19T17:08:41.930Z,5.97
2017-12-19T17:11:10.090Z,5.77
2017-12-19T17:13:38.214Z,6.37
2017-12-19T17:16:06.374Z,6.20
2017-12-19T17:18:35.265Z,5.43
2017-12-19T17:21:04.206Z,6.13
2017-12-19T17:23:32.342Z,6.27
2017-12-19T17:26:00.520Z,6.17
2017-12-19T17:28:28.660Z,8.80
2017-12-19T17:30:56.799Z,11.07
2017-12-19T17:33:24.966Z,12.90
2017-12-19T17:35:54.038Z,9.50
2017-12-19T17:38:22.200Z,9.47
2017-12-19T17:40:51.112Z,9.10
2017-12-19T17:43:19.457Z,10.60
2017-12-19T17:45:48.346Z,7.20
2017-12-19T17:48:16.497Z,7.83
2017-12-19T17:50:44.615Z,7.13
2017-12-19T17:53:12.773Z,6.83
2017-12-19T17:55:41.671Z,7.50
2017-12-19T17:58:10.586Z,7.77
2017-12-19T18:00:38.712Z,7.50
2017-12-19T18:03:07.936Z,8.00
2017-12-19T18:05:37.342Z,10.37
2017-12-19T18:08:05.710Z,10.60
2017-12-19T18:10:33.853Z,10.93
2017-12-19T18:13:02.517Z,10.97
2017-12-19T18:15:30.747Z,10.20
2017-12-19T18:17:59.764Z,12.10
2017-12-19T18:20:27.887Z,12.43
2017-12-19T18:22:56.065Z,11.07
2017-12-19T18:25:24.262Z,10.37
2017-12-19T18:27:53.178Z,11.13
2017-12-19T18:30:21.335Z,12.20
2017-12-19T18:32:50.502Z,18.90
2017-12-19T18:35:18.650Z,19.87
2017-12-19T18:37:46.794Z,19.23
2017-12-19T18:40:14.935Z,22.73
2017-12-19T18:42:43.107Z,20.27
2017-12-19T18:45:11.281Z,22.73
2017-12-19T18:47:39.417Z,20.90
2017-12-19T18:50:07.553Z,19.70
2017-12-19T18:52:35.709Z,20.50
2017-12-19T18:55:04.603Z,21.07
2017-12-19T18:57:33.522Z,26.40
2017-12-19T19:00:01.932Z,34.30
2017-12-19T19:02:30.156Z,31.37
2017-12-19T19:04:59.094Z,32.17
2017-12-19T19:07:27.253Z,20.50
2017-12-19T19:09:55.393Z,31.43
2017-12-19T19:12:24.284Z,24.10
2017-12-19T19:14:53.199Z,18.83
2017-12-19T19:17:21.354Z,19.97
2017-12-19T19:19:50.261Z,19.67
2017-12-19T19:22:18.392Z,19.40
2017-12-19T19:24:46.550Z,21.43
2017-12-19T19:27:14.678Z,19.10
2017-12-19T19:29:42.846Z,17.00
2017-12-19T19:32:10.977Z,19.37
2017-12-19T19:34:39.137Z,18.00
2017-12-19T19:37:07.286Z,26.70
2017-12-19T19:39:35.460Z,25.03
2017-12-19T19:42:03.737Z,24.57
2017-12-19T19:44:31.900Z,22.00
2017-12-19T19:47:00.039Z,22.20
2017-12-19T19:49:28.190Z,23.10
2017-12-19T19:51:56.326Z,20.03
2017-12-19T19:54:24.514Z,20.13
2017-12-19T19:56:53.274Z,17.53
2017-12-19T19:59:21.499Z,17.03
2017-12-19T20:01:49.821Z,18.13
2017-12-19T20:04:18.257Z,17.90
2017-12-19T20:06:46.646Z,20.97
2017-12-19T20:09:15.454Z,20.47
2017-12-19T20:11:44.387Z,20.47
2017-12-19T20:14:12.541Z,19.73
2017-12-19T20:16:40.745Z,19.17
2017-12-19T20:19:09.142Z,20.23
2017-12-19T20:21:37.390Z,21.30
2017-12-19T20:24:05.763Z,22.90
2017-12-19T20:26:34.734Z,22.60
2017-12-19T20:29:02.929Z,22.97
2017-12-19T20:31:31.069Z,26.17
2017-12-19T20:33:59.989Z,34.03
2017-12-19T20:36:28.107Z,36.00
2017-12-19T20:38:56.241Z,29.13
2017-12-19T20:41:24.382Z,28.80
2017-12-19T20:43:53.440Z,30.97
2017-12-19T20:46:22.489Z,32.23
2017-12-19T20:48:51.077Z,27.77
2017-12-19T20:51:19.508Z,26.60
2017-12-19T20:53:48.710Z,27.73
2017-12-19T20:56:16.878Z,21.40
2017-12-19T20:58:45.176Z,18.67
2017-12-19T21:01:13.386Z,19.60
2017-12-19T21:03:41.543Z,18.57
2017-12-19T21:06:09.747Z,20.17
2017-12-19T21:08:38.749Z,22.13
2017-12-19T21:11:06.878Z,17.83
2017-12-19T21:13:36.089Z,21.60
2017-12-19T21:16:04.212Z,20.80
2017-12-19T21:18:32.398Z,21.80
2017-12-19T21:21:03.519Z,19.73
2017-12-19T21:23:31.756Z,21.90
2017-12-19T21:26:00.170Z,20.77
2017-12-19T21:28:28.342Z,20.53
2017-12-19T21:30:56.512Z,18.10
2017-12-19T21:33:24.774Z,20.60
2017-12-19T21:35:52.932Z,18.60
2017-12-19T21:38:21.859Z,20.10
2017-12-19T21:40:49.986Z,20.40
2017-12-19T21:43:18.882Z,22.93
2017-12-19T21:45:48.115Z,29.63
2017-12-19T21:48:16.233Z,22.13
2017-12-19T21:50:44.394Z,22.50
2017-12-19T21:53:12.518Z,25.33
2017-12-19T21:55:40.743Z,26.27
2017-12-19T21:58:09.026Z,23.00
2017-12-19T22:00:37.180Z,23.07
2017-12-19T22:03:05.313Z,22.40
2017-12-19T22:05:33.456Z,21.07
2017-12-19T22:08:01.620Z,20.47
2017-12-19T22:10:29.788Z,21.07
2017-12-19T22:12:57.913Z,21.73
2017-12-19T22:15:26.063Z,22.53
2017-12-19T22:17:54.980Z,23.00
2017-12-19T22:20:23.124Z,24.80
2017-12-19T22:22:52.032Z,26.73
2017-12-19T22:25:20.188Z,26.10
2017-12-19T22:27:49.097Z,27.47
2017-12-19T22:30:17.243Z,27.40
2017-12-19T22:32:45.388Z,26.40
2017-12-19T22:35:13.579Z,26.60
2017-12-19T22:37:41.709Z,23.93
2017-12-19T22:43:09.680Z,22.50
2017-12-19T22:45:37.830Z,23.60
2017-12-19T22:48:06.719Z,25.07
2017-12-19T22:50:35.652Z,22.47
2017-12-19T22:53:04.146Z,22.07
2017-12-19T22:55:32.296Z,22.77
2017-12-19T22:58:00.427Z,25.33
2017-12-19T23:00:28.576Z,25.50
2017-12-19T23:02:56.711Z,25.10
2017-12-19T23:05:24.851Z,23.90
2017-12-19T23:07:53.738Z,23.57
2017-12-19T23:10:22.664Z,23.80
2017-12-19T23:12:50.779Z,26.97
2017-12-19T23:15:18.940Z,25.70
2017-12-19T23:17:47.067Z,24.43
2017-12-19T23:20:16.906Z,26.20
2017-12-19T23:22:45.027Z,26.60
2017-12-19T23:25:13.159Z,23.33
2017-12-19T23:27:41.291Z,24.00
2017-12-19T23:30:10.218Z,25.30
2017-12-19T23:32:38.355Z,23.57
2017-12-19T23:35:06.486Z,25.53
2017-12-19T23:37:34.611Z,23.90
2017-12-19T23:40:03.544Z,26.73
2017-12-19T23:42:31.665Z,24.63
2017-12-19T23:45:00.582Z,26.07
2017-12-19T23:47:28.707Z,24.20
2017-12-19T23:49:56.863Z,25.10
2017-12-19T23:52:25.000Z,24.50
2017-12-19T23:54:53.904Z,23.93
2017-12-19T23:57:22.037Z,23.40
2017-12-19T23:59:50.963Z,23.87
